Time;durP1;ratioP1;P1;durP2;ratioP2;P2;SDS_P1;SDS_P2;PMS_P1;PMS_P2;Temp;Humidity;BMP_temperature;BMP_pressure;BME280_temperature;BME280_humidity;BME280_pressure;Samples;Min_cycle;Max_cycle;Signal;HPM_P1;HPM_P2
2022/05/20 00:01:32;;;;;;;8.18;2.13;;;22.30;64.10;;;;;;4476920;32;20235;-71
2022/05/20 00:03:58;;;;;;;6.60;2.00;;;22.30;64.00;;;;;;4476898;32;20140;-70
2022/05/20 00:06:23;;;;;;;7.60;2.42;;;22.30;64.10;;;;;;4476388;31;20092;-70
2022/05/20 00:08:49;;;;;;;4.93;1.73;;;22.30;64.00;;;;;;4476790;32;20101;-70
2022/05/20 00:11:15;;;;;;;7.65;1.77;;;22.30;64.10;;;;;;4476461;32;20112;-70
2022/05/20 00:13:43;;;;;;;6.15;1.70;;;22.30;63.90;;;;;;4476280;31;20233;-70
2022/05/20 00:16:09;;;;;;;6.10;1.95;;;22.30;64.00;;;;;;4476517;31;20085;-70
2022/05/20 00:18:35;;;;;;;5.18;2.00;;;22.30;63.90;;;;;;4476257;32;20243;-70
2022/05/20 00:21:01;;;;;;;6.15;1.92;;;22.30;63.90;;;;;;4476447;32;20069;-70
2022/05/20 00:23:27;;;;;;;6.13;1.70;;;22.30;63.90;;;;;;4476359;31;20212;-70
2022/05/20 00:25:53;;;;;;;4.32;1.75;;;22.30;63.90;;;;;;4476186;32;20088;-70
2022/05/20 00:28:21;;;;;;;5.15;1.83;;;22.20;63.90;;;;;;4476017;32;20503;-70
2022/05/20 00:30:57;;;;;;;6.22;1.88;;;22.30;63.90;;;;;;4476347;32;20646;-70
2022/05/20 00:33:25;;;;;;;7.10;1.95;;;22.30;63.80;;;;;;4476799;32;20076;-70
2022/05/20 00:35:51;;;;;;;5.30;1.75;;;22.20;63.80;;;;;;4476330;32;20073;-70
2022/05/20 00:38:17;;;;;;;4.18;1.65;;;22.30;63.80;;;;;;4462348;32;20539;-69
2022/05/20 00:40:45;;;;;;;3.70;1.98;;;22.20;63.80;;;;;;4476106;32;20242;-70
2022/05/20 00:43:27;;;;;;;4.45;1.55;;;22.20;63.70;;;;;;4476244;32;20136;-70
2022/05/20 00:45:56;;;;;;;5.95;1.88;;;22.20;63.70;;;;;;4476235;32;20085;-70
2022/05/20 00:48:22;;;;;;;4.57;1.77;;;22.20;63.70;;;;;;4475073;32;20082;-70
2022/05/20 00:50:55;;;;;;;5.07;1.95;;;22.20;63.70;;;;;;4476260;32;20084;-70
2022/05/20 00:53:23;;;;;;;5.97;2.00;;;22.20;63.70;;;;;;4475947;32;20101;-70
2022/05/20 00:55:50;;;;;;;4.78;1.75;;;22.20;63.70;;;;;;4476031;32;20129;-70
2022/05/20 00:58:22;;;;;;;5.93;1.48;;;22.20;63.70;;;;;;4476257;32;20081;-70
2022/05/20 01:00:51;;;;;;;5.25;1.60;;;22.20;63.70;;;;;;4476306;32;20499;-70
2022/05/20 01:03:22;;;;;;;6.45;1.80;;;22.20;63.70;;;;;;4476266;32;20414;-70
2022/05/20 01:05:50;;;;;;;5.22;1.50;;;22.20;63.60;;;;;;4476407;32;20066;-70
2022/05/20 01:08:22;;;;;;;6.78;2.28;;;22.20;63.60;;;;;;4474722;32;20116;-70
2022/05/20 01:10:48;;;;;;;4.88;1.70;;;22.20;63.60;;;;;;4474992;32;20497;-70
2022/05/20 01:13:18;;;;;;;4.82;1.70;;;22.20;63.50;;;;;;4475861;32;20090;-68
2022/05/20 01:15:46;;;;;;;5.35;1.88;;;22.10;63.50;;;;;;4476007;32;20540;-70
2022/05/20 01:18:14;;;;;;;5.82;1.40;;;22.10;63.50;;;;;;4476310;32;20491;-70
2022/05/20 01:20:43;;;;;;;2.75;1.30;;;22.10;63.50;;;;;;4476115;32;20245;-70
2022/05/20 01:23:12;;;;;;;4.03;1.77;;;22.10;63.50;;;;;;4475762;32;20074;-70
2022/05/20 01:25:50;;;;;;;5.18;1.45;;;22.10;63.50;;;;;;4476232;32;20101;-70
2022/05/20 01:28:17;;;;;;;4.30;1.50;;;22.10;63.50;;;;;;4476698;32;20514;-70
2022/05/20 01:30:49;;;;;;;3.97;1.58;;;22.10;63.50;;;;;;4475941;32;20085;-70
2022/05/20 01:33:37;;;;;;;5.95;1.60;;;22.10;63.50;;;;;;4476342;32;20070;-70
2022/05/20 01:36:12;;;;;;;4.70;1.63;;;22.10;63.30;;;;;;4475793;32;20081;-70
2022/05/20 01:38:38;;;;;;;3.92;1.52;;;22.10;63.50;;;;;;4475973;32;20054;-70
2022/05/20 01:41:10;;;;;;;4.13;1.38;;;22.10;63.40;;;;;;4476129;32;20092;-70
2022/05/20 01:43:57;;;;;;;6.88;1.90;;;22.10;63.40;;;;;;4474722;32;20128;-70
2022/05/20 01:46:43;;;;;;;4.95;1.70;;;22.10;63.30;;;;;;4475976;32;20081;-70
2022/05/20 01:49:21;;;;;;;3.08;1.25;;;22.10;63.40;;;;;;4475958;32;20077;-70
2022/05/20 01:51:53;;;;;;;3.95;1.30;;;22.10;63.30;;;;;;4476373;32;20581;-69
2022/05/20 01:54:40;;;;;;;3.20;1.42;;;22.10;63.40;;;;;;4478454;32;20092;-71
2022/05/20 01:57:37;;;;;;;4.43;1.20;;;22.00;63.30;;;;;;4478485;31;20425;-70
2022/05/20 02:00:15;;;;;;;2.70;1.40;;;22.00;63.30;;;;;;4477661;32;20069;-69
2022/05/20 02:02:46;;;;;;;3.17;1.40;;;22.00;63.40;;;;;;4478558;32;20103;-70
2022/05/20 02:05:31;;;;;;;5.65;1.58;;;22.00;63.40;;;;;;4478802;31;20073;-70
2022/05/20 02:08:10;;;;;;;2.58;1.35;;;22.00;63.30;;;;;;4478656;31;20085;-70
2022/05/20 02:10:51;;;;;;;5.00;1.60;;;22.00;63.30;;;;;;4478340;31;20491;-70
2022/05/20 02:13:18;;;;;;;3.78;1.45;;;22.00;63.30;;;;;;4478554;31;20077;-70
2022/05/20 02:15:55;;;;;;;3.70;1.33;;;22.00;63.30;;;;;;4490139;31;20096;-69
2022/05/20 02:18:29;;;;;;;3.83;1.58;;;22.00;63.30;;;;;;4478499;32;20093;-70
2022/05/20 02:21:01;;;;;;;5.80;1.70;;;22.00;63.40;;;;;;4478455;31;20084;-70
2022/05/20 02:23:35;;;;;;;3.28;1.33;;;22.00;63.40;;;;;;4478135;31;20143;-70
2022/05/20 02:26:06;;;;;;;4.15;1.30;;;22.00;63.40;;;;;;4478384;31;20096;-70
2022/05/20 02:28:40;;;;;;;2.58;1.20;;;22.00;63.40;;;;;;4478275;31;20080;-70
2022/05/20 02:31:11;;;;;;;3.20;1.50;;;22.00;63.30;;;;;;4478333;31;20411;-69
2022/05/20 02:33:37;;;;;;;2.67;1.10;;;22.00;63.30;;;;;;4478046;31;20081;-70
2022/05/20 02:36:17;;;;;;;4.20;1.38;;;22.00;63.20;;;;;;4478109;31;20088;-70
2022/05/20 02:38:42;;;;;;;3.80;1.30;;;22.00;63.20;;;;;;4477984;31;20069;-70
2022/05/20 02:41:08;;;;;;;5.25;1.58;;;22.00;63.20;;;;;;4478341;31;20058;-70
2022/05/20 02:43:34;;;;;;;2.10;1.20;;;22.00;63.20;;;;;;4478071;32;20147;-70
2022/05/20 02:46:01;;;;;;;5.00;1.40;;;22.00;63.20;;;;;;4477698;31;20137;-70
2022/05/20 02:48:27;;;;;;;2.65;1.20;;;21.90;63.10;;;;;;4477738;31;20085;-70
2022/05/20 02:50:53;;;;;;;3.13;1.40;;;21.90;63.10;;;;;;4477644;31;20096;-70
2022/05/20 02:53:19;;;;;;;4.25;1.35;;;21.90;63.10;;;;;;4477525;31;20375;-70
2022/05/20 02:55:46;;;;;;;2.80;1.33;;;21.90;63.10;;;;;;4476601;32;20384;-70
2022/05/20 03:04:09;;;;;;;3.55;1.27;;;21.90;63.10;;;;;;4477604;32;20113;-69
2022/05/20 03:06:31;;;;;;;2.92;1.23;;;21.90;63.00;;;;;;4477534;32;20538;-70
2022/05/20 03:08:56;;;;;;;2.25;1.17;;;21.90;63.00;;;;;;4477415;32;20077;-70
2022/05/20 03:11:22;;;;;;;3.35;1.20;;;21.90;63.00;;;;;;4477690;31;20491;-70
2022/05/20 03:13:49;;;;;;;3.15;1.15;;;21.90;63.00;;;;;;4477373;31;20073;-69
2022/05/20 03:16:15;;;;;;;2.78;1.27;;;21.80;62.90;;;;;;4477582;31;20220;-70
2022/05/20 03:18:41;;;;;;;3.45;1.30;;;21.90;63.00;;;;;;4477320;31;20391;-70
2022/05/20 03:21:07;;;;;;;2.42;1.10;;;21.80;62.90;;;;;;4476218;32;20179;-71
2022/05/20 03:23:32;;;;;;;1.65;0.93;;;21.80;62.90;;;;;;4477387;31;20476;-70
2022/05/20 03:26:03;;;;;;;4.18;1.23;;;21.80;62.90;;;;;;4476901;31;20066;-70
2022/05/20 03:28:28;;;;;;;4.90;1.20;;;21.80;62.90;;;;;;4477334;32;20215;-70
2022/05/20 03:30:54;;;;;;;2.33;1.25;;;21.80;62.90;;;;;;4475988;32;20065;-70
2022/05/20 03:33:20;;;;;;;2.72;1.23;;;21.90;63.00;;;;;;4476826;32;20453;-70
2022/05/20 03:35:48;;;;;;;3.63;1.10;;;21.80;62.80;;;;;;4477023;31;20277;-70
2022/05/20 03:38:14;;;;;;;2.22;1.10;;;21.80;62.80;;;;;;4477045;32;20057;-70
2022/05/20 03:40:40;;;;;;;2.22;1.10;;;21.80;62.80;;;;;;4477247;31;20101;-70
2022/05/20 03:43:06;;;;;;;3.20;1.40;;;21.80;62.80;;;;;;4476952;31;20085;-70
2022/05/20 03:45:31;;;;;;;2.15;0.80;;;21.80;62.80;;;;;;4475608;32;20183;-70
2022/05/20 03:47:57;;;;;;;3.60;1.38;;;21.80;62.80;;;;;;4476992;31;20073;-70
2022/05/20 03:50:23;;;;;;;1.77;0.80;;;21.80;62.80;;;;;;4477045;31;20660;-71
2022/05/20 03:52:49;;;;;;;3.92;1.10;;;21.80;62.80;;;;;;4476430;31;20523;-70
2022/05/20 03:55:15;;;;;;;2.72;1.20;;;21.70;62.70;;;;;;4476799;32;20562;-70
2022/05/20 03:57:41;;;;;;;2.88;1.20;;;21.80;62.80;;;;;;4476780;31;20065;-70
2022/05/20 04:00:07;;;;;;;2.45;1.15;;;21.70;62.60;;;;;;4475399;32;20088;-70
2022/05/20 04:02:33;;;;;;;2.47;1.20;;;21.70;62.70;;;;;;4477003;32;20082;-70
2022/05/20 04:04:59;;;;;;;2.22;1.10;;;21.70;62.60;;;;;;4476629;31;20075;-70
2022/05/20 04:07:27;;;;;;;2.53;1.10;;;21.70;62.60;;;;;;4476882;31;20514;-70
2022/05/20 04:09:53;;;;;;;2.50;0.90;;;21.70;62.70;;;;;;4476593;31;20069;-69
2022/05/20 04:12:42;;;;;;;2.20;0.98;;;21.70;62.70;;;;;;4476660;31;20078;-69
2022/05/20 04:15:11;;;;;;;1.17;0.88;;;21.70;62.60;;;;;;4476023;31;20081;-70
2022/05/20 04:17:38;;;;;;;2.50;0.77;;;21.70;62.70;;;;;;4476723;32;20131;-70
2022/05/20 04:20:07;;;;;;;2.08;1.10;;;21.70;62.70;;;;;;4476443;31;20446;-69
2022/05/20 04:22:36;;;;;;;3.22;1.20;;;21.70;62.70;;;;;;4476324;32;20078;-70
2022/05/20 04:25:04;;;;;;;1.40;0.90;;;21.70;62.70;;;;;;4476687;32;20073;-70
2022/05/20 04:27:30;;;;;;;1.70;1.00;;;21.70;62.70;;;;;;4462389;32;20117;-70
2022/05/20 04:29:56;;;;;;;3.88;1.00;;;21.70;62.60;;;;;;4476065;32;20089;-70
2022/05/20 04:32:23;;;;;;;2.28;0.98;;;21.70;62.60;;;;;;4476337;32;20061;-70
2022/05/20 04:34:49;;;;;;;1.58;0.90;;;21.70;62.60;;;;;;4476278;32;20112;-70
2022/05/20 04:37:15;;;;;;;2.05;0.93;;;21.70;62.60;;;;;;4476355;32;20101;-69
2022/05/20 04:39:41;;;;;;;2.40;0.98;;;21.70;62.60;;;;;;4475997;31;20420;-70
2022/05/20 04:47:41;;;;;;;2.05;1.10;;;21.70;62.60;;;;;;4476495;32;20571;-70
2022/05/20 04:50:08;;;;;;;2.30;0.98;;;21.60;62.60;;;;;;4475961;32;20495;-69
2022/05/20 04:52:34;;;;;;;2.95;1.20;;;21.60;62.60;;;;;;4474585;32;20162;-70
2022/05/20 04:55:01;;;;;;;1.65;0.90;;;21.60;62.60;;;;;;4476201;32;20074;-69
2022/05/20 04:57:35;;;;;;;1.80;0.80;;;21.60;62.50;;;;;;4476210;32;20077;-69
2022/05/20 05:00:10;;;;;;;2.22;1.00;;;21.60;62.60;;;;;;4476147;32;20121;-70
2022/05/20 05:02:36;;;;;;;3.70;0.80;;;21.60;62.50;;;;;;4476242;32;20069;-70
2022/05/20 05:05:04;;;;;;;2.00;0.90;;;21.60;62.60;;;;;;4476121;32;20077;-68
2022/05/20 05:07:30;;;;;;;1.13;0.73;;;21.60;62.60;;;;;;4476017;32;20069;-70
2022/05/20 05:09:58;;;;;;;1.55;0.70;;;21.60;62.60;;;;;;4476117;32;20066;-69
2022/05/20 05:12:23;;;;;;;0.93;0.73;;;21.60;62.50;;;;;;4476256;32;20065;-70
2022/05/20 05:14:52;;;;;;;1.88;1.08;;;21.60;62.50;;;;;;4475951;32;20383;-70
2022/05/20 05:18:09;;;;;;;2.35;1.10;;;21.60;62.50;;;;;;4474779;32;20097;-70
2022/05/20 05:20:12;;;;;;;2.45;1.00;;;21.60;62.50;;;;;;4476193;32;20085;-69
2022/05/20 05:22:38;;;;;;;1.60;0.70;;;21.60;62.50;;;;;;4475891;32;20231;-70
2022/05/20 05:25:04;;;;;;;1.27;0.63;;;21.60;62.50;;;;;;4475969;32;20084;-70
2022/05/20 05:27:30;;;;;;;1.63;0.88;;;21.60;62.50;;;;;;4478077;32;20544;-70
2022/05/20 05:29:56;;;;;;;2.08;0.90;;;21.60;62.50;;;;;;4478942;31;20092;-70
2022/05/20 05:32:21;;;;;;;1.27;0.73;;;21.60;62.50;;;;;;4478907;31;20128;-70
2022/05/20 05:34:47;;;;;;;1.25;0.82;;;21.60;62.50;;;;;;4478935;31;20065;-70
2022/05/20 05:37:13;;;;;;;2.00;1.08;;;21.60;62.40;;;;;;4478841;31;20092;-70
2022/05/20 05:39:40;;;;;;;1.42;0.90;;;21.60;62.40;;;;;;4478842;32;20066;-70
2022/05/20 05:42:07;;;;;;;2.33;0.93;;;21.60;62.30;;;;;;4478768;31;20187;-69
2022/05/20 05:44:32;;;;;;;1.25;0.80;;;21.60;62.30;;;;;;4478725;32;20133;-70
2022/05/20 05:46:58;;;;;;;1.60;1.00;;;21.60;62.30;;;;;;4477887;32;20077;-69
2022/05/20 05:49:24;;;;;;;2.13;0.88;;;21.60;62.30;;;;;;4478862;32;20514;-69
2022/05/20 05:51:50;;;;;;;1.90;0.90;;;21.60;62.30;;;;;;4478210;31;20078;-69
2022/05/20 05:54:18;;;;;;;2.20;0.85;;;21.60;62.20;;;;;;4479006;31;20050;-69
2022/05/20 05:56:43;;;;;;;1.52;0.80;;;21.60;62.20;;;;;;4478547;31;20429;-69
2022/05/20 05:59:09;;;;;;;1.40;0.70;;;21.60;62.20;;;;;;4478528;31;20499;-69
2022/05/20 06:01:35;;;;;;;2.22;0.95;;;21.60;62.10;;;;;;4478242;32;20078;-69
2022/05/20 06:04:01;;;;;;;1.90;0.90;;;21.60;62.10;;;;;;4477357;32;20113;-69
2022/05/20 06:06:27;;;;;;;1.60;0.80;;;21.60;62.00;;;;;;4477135;32;20479;-69
2022/05/20 06:08:53;;;;;;;1.25;0.63;;;21.70;62.00;;;;;;4478278;32;20116;-69
2022/05/20 06:11:19;;;;;;;1.98;0.80;;;21.70;62.00;;;;;;4477253;32;20491;-69
2022/05/20 06:13:45;;;;;;;1.50;0.80;;;21.70;62.00;;;;;;4477173;32;20476;-69
2022/05/20 06:16:18;;;;;;;1.10;0.80;;;21.70;62.00;;;;;;4477967;32;20116;-69
2022/05/20 06:18:44;;;;;;;2.30;0.90;;;21.70;61.90;;;;;;4478071;31;20511;-70
2022/05/20 06:21:10;;;;;;;1.00;0.70;;;21.70;61.90;;;;;;4476884;32;20077;-69
2022/05/20 06:23:36;;;;;;;2.70;0.90;;;21.70;61.90;;;;;;4477814;32;20080;-69
2022/05/20 06:26:02;;;;;;;1.75;0.80;;;21.70;61.90;;;;;;4478168;31;20077;-69
2022/05/20 06:28:30;;;;;;;1.58;0.85;;;21.70;61.90;;;;;;4478041;31;20388;-69
2022/05/20 06:30:56;;;;;;;1.83;0.80;;;21.70;61.90;;;;;;4477996;32;20129;-69
2022/05/20 06:33:24;;;;;;;4.10;1.17;;;21.70;61.90;;;;;;4478025;32;20515;-69
2022/05/20 06:41:19;;;;;;;1.48;1.17;;;21.80;62.00;;;;;;4478346;32;20085;-67
2022/05/20 06:43:46;;;;;;;3.08;1.38;;;21.80;61.90;;;;;;4477876;32;20373;-68
2022/05/20 06:46:12;;;;;;;2.85;1.30;;;21.80;61.90;;;;;;4477825;31;20215;-69
2022/05/20 06:48:42;;;;;;;3.00;1.58;;;21.80;61.90;;;;;;4477485;31;20116;-69
2022/05/20 06:51:10;;;;;;;2.78;1.30;;;21.80;61.70;;;;;;4478154;32;20085;-68
2022/05/20 06:53:36;;;;;;;4.95;1.63;;;21.90;61.80;;;;;;4477496;31;20086;-68
2022/05/20 06:56:03;;;;;;;2.90;1.65;;;21.80;61.80;;;;;;4477698;31;20078;-68
2022/05/20 06:58:30;;;;;;;6.63;1.50;;;21.80;61.70;;;;;;4477418;31;20455;-68
2022/05/20 07:00:57;;;;;;;3.90;1.50;;;21.80;61.60;;;;;;4477537;32;20166;-68
2022/05/20 07:03:23;;;;;;;4.25;1.80;;;21.80;61.50;;;;;;4477313;32;20089;-68
2022/05/20 07:05:49;;;;;;;2.72;1.50;;;21.80;61.50;;;;;;4477601;32;20073;-68
2022/05/20 07:08:15;;;;;;;2.75;1.58;;;21.80;61.50;;;;;;4477433;32;20088;-68
2022/05/20 07:10:41;;;;;;;4.00;1.52;;;21.80;61.40;;;;;;4477459;31;20109;-68
2022/05/20 07:13:07;;;;;;;3.67;1.70;;;21.80;61.30;;;;;;4477162;31;20100;-68
2022/05/20 07:15:33;;;;;;;3.42;1.50;;;21.80;61.30;;;;;;4477378;31;20073;-68
2022/05/20 07:17:59;;;;;;;4.50;1.75;;;21.90;61.20;;;;;;4477346;31;20095;-68
2022/05/20 07:20:25;;;;;;;4.10;1.65;;;21.90;61.20;;;;;;4477501;32;20096;-68
2022/05/20 07:22:51;;;;;;;5.22;1.88;;;21.90;61.10;;;;;;4476829;32;20147;-68
2022/05/20 07:25:19;;;;;;;5.70;2.22;;;21.90;61.10;;;;;;4477293;32;20069;-68
2022/05/20 07:27:46;;;;;;;5.45;2.17;;;21.90;61.00;;;;;;4477106;32;20085;-69
2022/05/20 07:30:14;;;;;;;2.95;1.48;;;22.00;60.80;;;;;;4476956;31;20545;-69
2022/05/20 07:32:39;;;;;;;4.18;1.70;;;22.00;60.80;;;;;;4476238;32;20100;-69
2022/05/20 07:35:06;;;;;;;6.10;1.60;;;22.00;60.80;;;;;;4477081;32;20078;-68
2022/05/20 07:37:32;;;;;;;4.20;1.60;;;22.00;60.70;;;;;;4477043;31;20077;-69
2022/05/20 07:39:58;;;;;;;3.38;1.50;;;22.00;60.70;;;;;;4477026;31;20091;-68
2022/05/20 07:42:25;;;;;;;3.08;1.58;;;22.10;60.60;;;;;;4475670;32;20077;-69
2022/05/20 07:44:51;;;;;;;4.45;1.70;;;22.10;60.60;;;;;;4477020;32;20109;-69
2022/05/20 07:47:18;;;;;;;3.90;1.65;;;22.10;60.40;;;;;;4476900;31;20076;-69
2022/05/20 07:49:44;;;;;;;3.85;1.60;;;22.10;60.30;;;;;;4476234;31;20092;-69
2022/05/20 07:52:13;;;;;;;2.78;1.63;;;22.10;60.30;;;;;;4476862;32;20200;-69
2022/05/20 07:54:42;;;;;;;3.83;1.60;;;22.10;60.10;;;;;;4476691;32;20132;-69
2022/05/20 07:57:13;;;;;;;3.33;1.40;;;22.20;60.10;;;;;;4476536;32;20101;-68
2022/05/20 07:59:49;;;;;;;7.43;1.48;;;22.20;60.00;;;;;;4476800;32;20600;-69
2022/05/20 08:02:19;;;;;;;2.92;1.30;;;22.20;59.90;;;;;;4475738;32;20162;-68
2022/05/20 08:04:56;;;;;;;4.20;1.48;;;22.20;59.90;;;;;;4475663;32;20112;-68
2022/05/20 08:07:24;;;;;;;2.97;1.50;;;22.20;59.70;;;;;;4476920;32;20093;-69
2022/05/20 08:09:50;;;;;;;3.00;1.50;;;22.30;59.70;;;;;;4476329;31;20096;-68
2022/05/20 08:12:15;;;;;;;4.22;1.50;;;22.30;59.70;;;;;;4476791;32;20069;-68
2022/05/20 08:14:41;;;;;;;5.15;1.80;;;22.30;59.60;;;;;;4476423;32;20459;-69
2022/05/20 08:17:07;;;;;;;5.03;1.60;;;22.30;59.50;;;;;;4476655;32;20215;-68
2022/05/20 08:19:34;;;;;;;6.57;1.45;;;22.40;59.50;;;;;;4476434;31;20069;-68
2022/05/20 08:22:00;;;;;;;2.80;1.23;;;22.40;59.40;;;;;;4476498;32;20166;-68
2022/05/20 08:24:27;;;;;;;4.80;1.30;;;22.40;59.30;;;;;;4476393;31;20077;-69
2022/05/20 08:26:53;;;;;;;2.45;1.02;;;22.40;59.10;;;;;;4476679;31;20084;-68
2022/05/20 08:29:19;;;;;;;5.00;1.02;;;22.40;59.10;;;;;;4475954;32;20088;-69
2022/05/20 08:31:45;;;;;;;3.88;1.15;;;22.40;59.00;;;;;;4476103;32;20168;-68
2022/05/20 08:34:13;;;;;;;2.65;1.27;;;22.40;58.80;;;;;;4476299;31;20113;-68
2022/05/20 08:36:40;;;;;;;2.45;1.35;;;22.40;58.60;;;;;;4476066;32;20545;-68
2022/05/20 08:39:10;;;;;;;5.18;1.67;;;22.40;58.50;;;;;;4476039;32;20085;-68
2022/05/20 08:41:49;;;;;;;2.58;1.60;;;22.40;58.40;;;;;;4476553;32;20092;-68
2022/05/20 08:44:18;;;;;;;5.32;1.88;;;22.40;58.20;;;;;;4476320;32;20073;-68
2022/05/20 08:46:45;;;;;;;5.32;1.90;;;22.40;58.10;;;;;;4476555;32;20081;-67
2022/05/20 08:49:15;;;;;;;4.38;1.40;;;22.40;58.10;;;;;;4476138;32;20128;-68
2022/05/20 08:51:47;;;;;;;2.75;1.50;;;22.40;58.10;;;;;;4476213;32;20502;-69
2022/05/20 08:54:12;;;;;;;5.43;1.52;;;22.40;58.10;;;;;;4476079;32;20098;-68
2022/05/20 08:56:38;;;;;;;4.72;1.95;;;22.40;58.00;;;;;;4475849;32;20117;-68
2022/05/20 08:59:09;;;;;;;4.60;1.75;;;22.40;57.90;;;;;;4476093;32;20066;-68
2022/05/20 09:01:41;;;;;;;3.00;1.55;;;22.40;57.90;;;;;;4478596;32;20069;-69
2022/05/20 09:04:11;;;;;;;4.15;1.55;;;22.40;57.90;;;;;;4479690;32;20061;-68
2022/05/20 09:07:00;;;;;;;4.57;1.75;;;22.40;57.80;;;;;;4479355;32;20085;-68
2022/05/20 09:09:45;;;;;;;3.58;1.52;;;22.40;57.60;;;;;;4479327;31;20066;-68
2022/05/20 09:12:23;;;;;;;4.18;1.60;;;22.50;57.60;;;;;;4479324;32;20073;-68
2022/05/20 09:17:42;;;;;;;6.15;1.42;;;22.50;57.30;;;;;;4478980;32;20080;-68
2022/05/20 09:20:14;;;;;;;5.30;1.30;;;22.50;57.20;;;;;;4479252;31;20065;-68
2022/05/20 09:22:40;;;;;;;7.20;1.42;;;22.50;57.30;;;;;;4479009;31;20074;-68
2022/05/20 09:25:10;;;;;;;4.13;1.33;;;22.50;57.10;;;;;;4478957;31;20089;-68
2022/05/20 09:27:37;;;;;;;3.80;1.32;;;22.50;57.10;;;;;;4478904;31;20092;-68
2022/05/20 09:30:05;;;;;;;2.95;1.50;;;22.50;57.10;;;;;;4477902;32;20073;-68
2022/05/20 09:32:39;;;;;;;3.88;1.20;;;22.50;57.00;;;;;;4478895;31;20084;-68
2022/05/20 09:35:23;;;;;;;5.38;1.30;;;22.50;57.10;;;;;;4478955;31;20089;-67
2022/05/20 09:37:53;;;;;;;1.92;1.23;;;22.50;56.90;;;;;;4478999;31;20073;-67
2022/05/20 09:40:41;;;;;;;3.20;1.20;;;22.50;57.10;;;;;;4478585;31;20239;-68
2022/05/20 09:43:22;;;;;;;2.92;1.20;;;22.50;57.20;;;;;;4478601;31;20518;-68
2022/05/20 09:45:49;;;;;;;5.15;1.23;;;22.50;57.20;;;;;;4478841;31;20065;-68
2022/05/20 09:48:38;;;;;;;3.42;1.30;;;22.50;57.10;;;;;;4478605;31;20114;-68
2022/05/20 09:51:10;;;;;;;4.53;1.42;;;22.50;58.10;;;;;;4478454;31;20073;-68
2022/05/20 09:53:39;;;;;;;6.68;1.50;;;22.50;57.00;;;;;;4477001;32;20107;-68
2022/05/20 09:56:30;;;;;;;4.10;1.40;;;22.50;56.90;;;;;;4478565;31;20085;-68
2022/05/20 09:59:22;;;;;;;5.47;1.25;;;22.50;56.90;;;;;;4477571;32;20073;-68
2022/05/20 10:02:06;;;;;;;4.07;1.33;;;22.50;56.90;;;;;;4478499;31;20637;-68
2022/05/20 10:04:41;;;;;;;4.80;1.50;;;22.60;56.90;;;;;;4478259;32;20122;-68
2022/05/20 10:07:13;;;;;;;2.47;1.20;;;22.50;57.00;;;;;;4478788;32;20083;-68
2022/05/20 10:09:53;;;;;;;6.70;1.50;;;22.50;57.00;;;;;;4478360;31;20450;-68
2022/05/20 10:12:29;;;;;;;5.43;1.58;;;22.50;56.90;;;;;;4477773;31;20593;-68
2022/05/20 10:15:17;;;;;;;5.30;1.63;;;22.60;57.00;;;;;;4477923;31;20411;-68
2022/05/20 10:18:13;;;;;;;4.57;1.30;;;22.50;57.10;;;;;;4478611;31;20215;-68
2022/05/20 10:21:02;;;;;;;5.90;1.25;;;22.50;57.20;;;;;;4478540;31;20495;-68
2022/05/20 10:23:51;;;;;;;5.65;1.42;;;22.50;57.30;;;;;;4478234;31;20158;-68
2022/05/20 10:26:43;;;;;;;4.05;1.40;;;22.50;57.20;;;;;;4477886;31;20270;-68
2022/05/20 10:32:49;;;;;;;2.55;1.38;;;22.50;57.10;;;;;;4478308;32;20179;-68
2022/05/20 10:35:20;;;;;;;3.10;1.45;;;22.50;57.40;;;;;;4478118;31;20136;-68
2022/05/20 10:38:03;;;;;;;4.20;1.33;;;22.50;57.10;;;;;;4478228;31;20070;-68
2022/05/20 10:40:36;;;;;;;4.40;1.42;;;22.50;57.00;;;;;;4478216;31;20087;-68
2022/05/20 10:43:24;;;;;;;2.35;1.30;;;22.50;57.00;;;;;;4476839;32;20132;-68
2022/05/20 10:49:09;;;;;;;3.53;1.08;;;22.50;56.50;;;;;;4477823;32;20077;-67
2022/05/20 10:52:02;;;;;;;5.85;1.40;;;22.50;56.40;;;;;;4477994;31;20483;-68
2022/05/20 10:54:48;;;;;;;5.78;1.63;;;22.50;56.40;;;;;;4477574;31;20093;-68
2022/05/20 10:57:35;;;;;;;4.13;1.30;;;22.50;56.50;;;;;;4477517;31;20100;-68
2022/05/20 11:00:18;;;;;;;3.60;1.60;;;22.50;56.50;;;;;;4477573;31;20116;-68
2022/05/20 11:03:02;;;;;;;4.85;1.45;;;22.50;56.20;;;;;;4477670;32;20407;-68
2022/05/20 11:05:46;;;;;;;3.80;1.23;;;22.50;57.40;;;;;;4476672;32;20089;-68
2022/05/20 11:08:21;;;;;;;4.43;1.50;;;22.50;56.40;;;;;;4477479;31;20248;-68
2022/05/20 11:11:02;;;;;;;4.22;1.55;;;22.50;57.50;;;;;;4477589;32;20482;-68
2022/05/20 11:13:54;;;;;;;5.43;1.65;;;22.50;56.60;;;;;;4477418;32;20592;-67
2022/05/20 11:16:29;;;;;;;4.20;1.38;;;22.50;56.40;;;;;;4477964;31;20073;-68
2022/05/20 11:19:14;;;;;;;10.02;1.40;;;22.50;56.50;;;;;;4476348;32;20091;-70
2022/05/20 11:21:55;;;;;;;7.85;1.63;;;22.50;56.40;;;;;;4477877;32;20073;-67
2022/05/20 11:24:52;;;;;;;5.25;1.25;;;22.50;56.20;;;;;;4477508;31;20198;-66
2022/05/20 11:27:56;;;;;;;5.53;1.10;;;22.50;57.00;;;;;;4477223;31;20088;-68
2022/05/20 11:30:31;;;;;;;5.13;1.37;;;22.50;56.20;;;;;;4477214;32;20671;-68
2022/05/20 11:33:16;;;;;;;3.15;1.75;;;22.50;56.20;;;;;;4477346;31;20196;-68
2022/05/20 11:35:52;;;;;;;2.90;1.20;;;22.50;56.20;;;;;;4477117;32;20527;-68
2022/05/20 11:38:26;;;;;;;3.90;1.38;;;22.50;56.20;;;;;;4477404;31;20077;-69
2022/05/20 11:41:07;;;;;;;5.00;1.63;;;22.50;56.30;;;;;;4477046;31;20190;-68
2022/05/20 11:43:54;;;;;;;6.07;1.75;;;22.50;56.20;;;;;;4477508;31;20387;-67
2022/05/20 11:46:27;;;;;;;5.22;1.73;;;22.50;56.30;;;;;;4477239;31;20078;-67
2022/05/20 11:49:04;;;;;;;3.38;1.60;;;22.50;56.10;;;;;;4477156;32;20384;-65
2022/05/20 11:51:59;;;;;;;5.60;2.00;;;22.50;56.20;;;;;;4476855;32;20080;-68
2022/05/20 11:54:47;;;;;;;4.07;1.63;;;22.50;56.30;;;;;;4474250;32;20144;-68
2022/05/20 11:57:20;;;;;;;5.00;1.23;;;22.50;56.20;;;;;;4475497;32;20416;-68
2022/05/20 11:59:56;;;;;;;3.60;1.42;;;22.50;56.10;;;;;;4476844;31;20162;-68
2022/05/20 12:02:24;;;;;;;4.38;1.48;;;22.50;56.10;;;;;;4477064;31;20251;-68
2022/05/20 12:04:50;;;;;;;4.95;1.70;;;22.50;56.10;;;;;;4476474;31;20183;-68
2022/05/20 12:07:20;;;;;;;3.42;1.30;;;22.50;56.20;;;;;;4476425;31;20070;-68
2022/05/20 12:09:57;;;;;;;2.97;1.60;;;22.50;56.20;;;;;;4476668;32;20074;-68
2022/05/20 12:12:30;;;;;;;3.17;1.15;;;22.50;56.20;;;;;;4476733;32;20109;-68
2022/05/20 12:15:14;;;;;;;6.90;1.65;;;22.50;56.20;;;;;;4476780;31;20081;-68
2022/05/20 12:17:48;;;;;;;4.57;1.90;;;22.50;56.20;;;;;;4475347;32;20073;-67
2022/05/20 12:26:18;;;;;;;6.40;1.90;;;22.50;56.20;;;;;;4476261;32;20210;-68
2022/05/20 12:28:45;;;;;;;4.75;1.40;;;22.60;56.30;;;;;;4474059;32;20100;-68
2022/05/20 12:31:20;;;;;;;3.53;1.48;;;22.50;56.30;;;;;;4476330;32;20391;-68
2022/05/20 12:33:50;;;;;;;4.32;1.70;;;22.50;56.20;;;;;;4476136;32;20092;-68
2022/05/20 12:36:28;;;;;;;7.93;1.52;;;22.50;56.20;;;;;;4476083;31;20522;-68
2022/05/20 12:39:09;;;;;;;4.55;1.30;;;22.60;56.20;;;;;;4476641;31;20182;-68
2022/05/20 12:41:45;;;;;;;4.07;1.48;;;22.50;56.10;;;;;;4476296;31;20174;-68
2022/05/20 12:44:17;;;;;;;4.32;1.35;;;22.50;56.00;;;;;;4476420;32;20088;-68
2022/05/20 12:47:09;;;;;;;3.38;1.40;;;22.50;55.70;;;;;;4476288;32;20104;-67
2022/05/20 12:49:46;;;;;;;2.97;1.15;;;22.50;56.40;;;;;;4476305;32;20085;-67
2022/05/20 12:52:26;;;;;;;3.17;1.40;;;22.60;55.70;;;;;;4475993;32;20101;-74
2022/05/20 12:55:13;;;;;;;3.67;1.30;;;22.60;55.60;;;;;;4476246;32;20120;-67
2022/05/20 12:57:56;;;;;;;3.08;1.80;;;22.60;55.80;;;;;;4475645;32;20231;-67
2022/05/20 13:00:46;;;;;;;7.13;1.60;;;22.60;55.80;;;;;;4476453;32;20569;-67
2022/05/20 13:03:44;;;;;;;3.70;1.60;;;22.60;55.80;;;;;;4476246;32;20093;-67
2022/05/20 13:06:14;;;;;;;2.45;1.27;;;22.60;55.60;;;;;;4476124;32;20081;-67
2022/05/20 13:08:50;;;;;;;5.22;1.80;;;22.60;55.70;;;;;;4475815;32;20077;-68
2022/05/20 13:11:19;;;;;;;5.47;1.45;;;22.60;55.40;;;;;;4476158;32;20092;-68
2022/05/20 13:13:49;;;;;;;3.65;1.20;;;22.60;55.40;;;;;;4476009;32;20384;-68
2022/05/20 13:16:15;;;;;;;3.50;1.38;;;22.60;55.50;;;;;;4476200;32;20218;-67
2022/05/20 13:18:55;;;;;;;5.32;1.70;;;22.60;55.40;;;;;;4475983;32;20084;-67
2022/05/20 13:21:22;;;;;;;3.13;1.17;;;22.60;55.40;;;;;;4476115;32;20070;-68
2022/05/20 13:23:50;;;;;;;3.88;1.88;;;22.60;55.50;;;;;;4474876;32;20092;-68
2022/05/20 13:26:25;;;;;;;3.30;1.38;;;22.60;55.40;;;;;;4475931;32;20081;-68
2022/05/20 13:28:58;;;;;;;7.97;1.35;;;22.60;55.50;;;;;;4476136;32;20503;-68
2022/05/20 13:31:25;;;;;;;3.75;1.30;;;22.60;55.60;;;;;;4475991;32;20069;-67
2022/05/20 13:33:53;;;;;;;3.30;1.35;;;22.60;55.60;;;;;;4475937;32;20073;-68
2022/05/20 13:36:22;;;;;;;3.30;1.38;;;22.60;55.50;;;;;;4475850;32;20077;-67
2022/05/20 13:38:56;;;;;;;2.78;1.20;;;22.60;55.50;;;;;;4475978;32;20523;-67
2022/05/20 13:41:24;;;;;;;1.77;1.05;;;22.50;55.60;;;;;;4476280;32;20139;-67
2022/05/20 13:43:53;;;;;;;3.20;1.30;;;22.50;55.50;;;;;;4476039;32;20074;-67